sensor_id;sensor_type;location;lat;lon;timestamp;pressure;altitude;pressure_sealevel;temperature
81399;BMP280;70853;50.074;10.224;2023-11-21T00:02:21;97882.28;;;8.52
81399;BMP280;70853;50.074;10.224;2023-11-21T00:04:50;97892.06;;;8.57
81399;BMP280;70853;50.074;10.224;2023-11-21T00:07:16;97887.47;;;8.57
81399;BMP280;70853;50.074;10.224;2023-11-21T00:09:42;97883.53;;;8.51
81399;BMP280;70853;50.074;10.224;2023-11-21T00:12:08;97891.16;;;8.54
81399;BMP280;70853;50.074;10.224;2023-11-21T00:14:37;97887.28;;;8.55
81399;BMP280;70853;50.074;10.224;2023-11-21T00:17:04;97889.38;;;8.49
81399;BMP280;70853;50.074;10.224;2023-11-21T00:19:31;97888.84;;;8.51
81399;BMP280;70853;50.074;10.224;2023-11-21T00:21:56;97886.91;;;8.51
81399;BMP280;70853;50.074;10.224;2023-11-21T00:24:24;97879.59;;;8.44
81399;BMP280;70853;50.074;10.224;2023-11-21T00:26:50;97888.13;;;8.50
81399;BMP280;70853;50.074;10.224;2023-11-21T00:29:17;97891.31;;;8.49
81399;BMP280;70853;50.074;10.224;2023-11-21T00:31:44;97886.34;;;8.45
81399;BMP280;70853;50.074;10.224;2023-11-21T00:34:12;97884.91;;;8.44
81399;BMP280;70853;50.074;10.224;2023-11-21T00:36:37;97888.31;;;8.52
81399;BMP280;70853;50.074;10.224;2023-11-21T00:39:03;97894.69;;;8.49
81399;BMP280;70853;50.074;10.224;2023-11-21T00:41:31;97900.50;;;8.40
81399;BMP280;70853;50.074;10.224;2023-11-21T00:43:57;97896.47;;;8.47
81399;BMP280;70853;50.074;10.224;2023-11-21T00:46:22;97899.81;;;8.47
81399;BMP280;70853;50.074;10.224;2023-11-21T00:48:49;97899.66;;;8.53
81399;BMP280;70853;50.074;10.224;2023-11-21T00:51:16;97897.69;;;8.53
81399;BMP280;70853;50.074;10.224;2023-11-21T00:53:42;97900.19;;;8.51
81399;BMP280;70853;50.074;10.224;2023-11-21T00:56:08;97896.66;;;8.56
81399;BMP280;70853;50.074;10.224;2023-11-21T00:58:34;97900.38;;;8.53
81399;BMP280;70853;50.074;10.224;2023-11-21T01:01:01;97898.63;;;8.56
81399;BMP280;70853;50.074;10.224;2023-11-21T01:03:28;97897.19;;;8.55
81399;BMP280;70853;50.074;10.224;2023-11-21T01:05:53;97891.75;;;8.60
81399;BMP280;70853;50.074;10.224;2023-11-21T01:08:20;97894.25;;;8.66
81399;BMP280;70853;50.074;10.224;2023-11-21T01:10:47;97897.22;;;8.62
81399;BMP280;70853;50.074;10.224;2023-11-21T01:13:15;97895.44;;;8.57
81399;BMP280;70853;50.074;10.224;2023-11-21T01:15:42;97899.66;;;8.53
81399;BMP280;70853;50.074;10.224;2023-11-21T01:18:08;97900.16;;;8.44
81399;BMP280;70853;50.074;10.224;2023-11-21T01:20:36;97899.47;;;8.51
81399;BMP280;70853;50.074;10.224;2023-11-21T01:23:03;97895.03;;;8.46
81399;BMP280;70853;50.074;10.224;2023-11-21T01:25:29;97902.47;;;8.47
81399;BMP280;70853;50.074;10.224;2023-11-21T01:27:55;97901.22;;;8.41
81399;BMP280;70853;50.074;10.224;2023-11-21T01:30:22;97909.34;;;8.43
81399;BMP280;70853;50.074;10.224;2023-11-21T01:32:47;97898.19;;;8.44
81399;BMP280;70853;50.074;10.224;2023-11-21T01:35:14;97897.13;;;8.47
81399;BMP280;70853;50.074;10.224;2023-11-21T01:37:39;97895.75;;;8.46
81399;BMP280;70853;50.074;10.224;2023-11-21T01:40:06;97900.00;;;8.49
81399;BMP280;70853;50.074;10.224;2023-11-21T01:42:35;97910.97;;;8.46
81399;BMP280;70853;50.074;10.224;2023-11-21T01:45:03;97897.13;;;8.47
81399;BMP280;70853;50.074;10.224;2023-11-21T01:47:33;97902.69;;;8.57
81399;BMP280;70853;50.074;10.224;2023-11-21T01:49:59;97901.59;;;8.52
81399;BMP280;70853;50.074;10.224;2023-11-21T01:52:27;97918.31;;;8.60
81399;BMP280;70853;50.074;10.224;2023-11-21T01:54:55;97911.00;;;8.53
81399;BMP280;70853;50.074;10.224;2023-11-21T01:57:21;97912.09;;;8.58
81399;BMP280;70853;50.074;10.224;2023-11-21T01:59:48;97909.56;;;8.52
81399;BMP280;70853;50.074;10.224;2023-11-21T02:02:15;97910.16;;;8.58
81399;BMP280;70853;50.074;10.224;2023-11-21T02:04:41;97913.72;;;8.61
81399;BMP280;70853;50.074;10.224;2023-11-21T02:07:07;97917.25;;;8.63
81399;BMP280;70853;50.074;10.224;2023-11-21T02:09:33;97910.53;;;8.62
81399;BMP280;70853;50.074;10.224;2023-11-21T02:11:59;97911.44;;;8.65
81399;BMP280;70853;50.074;10.224;2023-11-21T02:14:26;97912.81;;;8.58
81399;BMP280;70853;50.074;10.224;2023-11-21T02:16:54;97908.41;;;8.61
81399;BMP280;70853;50.074;10.224;2023-11-21T02:19:27;97916.91;;;8.59
81399;BMP280;70853;50.074;10.224;2023-11-21T02:21:56;97911.13;;;8.40
81399;BMP280;70853;50.074;10.224;2023-11-21T02:24:31;97909.41;;;8.50
81399;BMP280;70853;50.074;10.224;2023-11-21T02:26:57;97904.38;;;8.39
81399;BMP280;70853;50.074;10.224;2023-11-21T02:29:23;97889.66;;;8.38
81399;BMP280;70853;50.074;10.224;2023-11-21T02:31:54;97913.34;;;8.57
81399;BMP280;70853;50.074;10.224;2023-11-21T02:34:21;97911.06;;;8.61
81399;BMP280;70853;50.074;10.224;2023-11-21T02:36:47;97911.78;;;8.61
81399;BMP280;70853;50.074;10.224;2023-11-21T02:39:17;97915.19;;;8.69
81399;BMP280;70853;50.074;10.224;2023-11-21T02:41:43;97911.44;;;8.65
81399;BMP280;70853;50.074;10.224;2023-11-21T02:44:10;97900.84;;;8.44
81399;BMP280;70853;50.074;10.224;2023-11-21T02:46:39;97900.06;;;8.28
81399;BMP280;70853;50.074;10.224;2023-11-21T02:49:06;97907.56;;;8.38
81399;BMP280;70853;50.074;10.224;2023-11-21T02:51:35;97897.28;;;8.42
81399;BMP280;70853;50.074;10.224;2023-11-21T02:54:01;97901.91;;;8.41
81399;BMP280;70853;50.074;10.224;2023-11-21T02:56:29;97895.34;;;8.42
81399;BMP280;70853;50.074;10.224;2023-11-21T02:58:55;97901.91;;;8.41
81399;BMP280;70853;50.074;10.224;2023-11-21T03:01:21;97905.81;;;8.48
81399;BMP280;70853;50.074;10.224;2023-11-21T03:03:46;97898.56;;;8.48
81399;BMP280;70853;50.074;10.224;2023-11-21T03:06:13;97908.84;;;8.52
81399;BMP280;70853;50.074;10.224;2023-11-21T03:08:38;97893.94;;;8.41
81399;BMP280;70853;50.074;10.224;2023-11-21T03:11:04;97920.19;;;8.52
81399;BMP280;70853;50.074;10.224;2023-11-21T03:13:30;97914.53;;;8.48
81399;BMP280;70853;50.074;10.224;2023-11-21T03:15:57;97904.78;;;8.51
81399;BMP280;70853;50.074;10.224;2023-11-21T03:18:23;97906.88;;;8.45
81399;BMP280;70853;50.074;10.224;2023-11-21T03:20:49;97911.16;;;8.48
81399;BMP280;70853;50.074;10.224;2023-11-21T03:23:14;97900.50;;;8.40
81399;BMP280;70853;50.074;10.224;2023-11-21T03:25:40;97910.78;;;8.44
81399;BMP280;70853;50.074;10.224;2023-11-21T03:28:06;97916.31;;;8.53
81399;BMP280;70853;50.074;10.224;2023-11-21T03:30:35;97913.28;;;8.49
81399;BMP280;70853;50.074;10.224;2023-11-21T03:33:01;97917.94;;;8.56
81399;BMP280;70853;50.074;10.224;2023-11-21T03:35:29;97919.88;;;8.56
81399;BMP280;70853;50.074;10.224;2023-11-21T03:37:55;97915.47;;;8.58
81399;BMP280;70853;50.074;10.224;2023-11-21T03:40:21;97916.69;;;8.57
81399;BMP280;70853;50.074;10.224;2023-11-21T03:42:47;97923.44;;;8.58
81399;BMP280;70853;50.074;10.224;2023-11-21T03:45:13;97905.31;;;8.49
81399;BMP280;70853;50.074;10.224;2023-11-21T03:47:41;97910.09;;;8.51
81399;BMP280;70853;50.074;10.224;2023-11-21T03:50:07;97908.84;;;8.52
81399;BMP280;70853;50.074;10.224;2023-11-21T03:52:35;97914.34;;;8.46
81399;BMP280;70853;50.074;10.224;2023-11-21T03:55:01;97919.22;;;8.34
81399;BMP280;70853;50.074;10.224;2023-11-21T03:57:27;97906.28;;;8.31
81399;BMP280;70853;50.074;10.224;2023-11-21T03:59:53;97911.03;;;8.32
81399;BMP280;70853;50.074;10.224;2023-11-21T04:02:19;97906.78;;;8.29
81399;BMP280;70853;50.074;10.224;2023-11-21T04:04:44;97917.47;;;8.37
81399;BMP280;70853;50.074;10.224;2023-11-21T04:07:10;97919.63;;;8.39
81399;BMP280;70853;50.074;10.224;2023-11-21T04:09:36;97909.34;;;8.43
81399;BMP280;70853;50.074;10.224;2023-11-21T04:12:02;97914.16;;;8.44
81399;BMP280;70853;50.074;10.224;2023-11-21T04:14:28;97913.06;;;8.40
81399;BMP280;70853;50.074;10.224;2023-11-21T04:16:54;97916.09;;;8.44
81399;BMP280;70853;50.074;10.224;2023-11-21T04:19:20;97924.97;;;8.46
81399;BMP280;70853;50.074;10.224;2023-11-21T04:21:45;97928.16;;;8.45
81399;BMP280;70853;50.074;10.224;2023-11-21T04:24:11;97934.19;;;8.45
81399;BMP280;70853;50.074;10.224;2023-11-21T04:26:37;97940.38;;;8.48
81399;BMP280;70853;50.074;10.224;2023-11-21T04:29:03;97949.28;;;8.50
81399;BMP280;70853;50.074;10.224;2023-11-21T04:31:30;97945.28;;;8.36
81399;BMP280;70853;50.074;10.224;2023-11-21T04:33:56;97945.47;;;8.38
81399;BMP280;70853;50.074;10.224;2023-11-21T04:36:21;97943.38;;;8.44
81399;BMP280;70853;50.074;10.224;2023-11-21T04:38:47;97949.06;;;8.48
81399;BMP280;70853;50.074;10.224;2023-11-21T04:41:13;97950.69;;;8.51
81399;BMP280;70853;50.074;10.224;2023-11-21T04:43:38;97955.44;;;8.45
81399;BMP280;70853;50.074;10.224;2023-11-21T04:46:04;97955.19;;;8.35
81399;BMP280;70853;50.074;10.224;2023-11-21T04:48:30;97959.53;;;8.25
81399;BMP280;70853;50.074;10.224;2023-11-21T04:50:56;97959.34;;;8.44
81399;BMP280;70853;50.074;10.224;2023-11-21T04:53:21;97966.03;;;8.38
81399;BMP280;70853;50.074;10.224;2023-11-21T04:55:47;97967.66;;;8.41
81399;BMP280;70853;50.074;10.224;2023-11-21T04:58:14;97965.94;;;8.51
81399;BMP280;70853;50.074;10.224;2023-11-21T05:00:40;97965.31;;;8.37
81399;BMP280;70853;50.074;10.224;2023-11-21T05:03:06;97966.78;;;8.46
81399;BMP280;70853;50.074;10.224;2023-11-21T05:05:32;97967.50;;;8.46
81399;BMP280;70853;50.074;10.224;2023-11-21T05:07:59;97969.63;;;8.48
81399;BMP280;70853;50.074;10.224;2023-11-21T05:10:26;97972.75;;;8.39
81399;BMP280;70853;50.074;10.224;2023-11-21T05:12:52;97972.69;;;8.31
81399;BMP280;70853;50.074;10.224;2023-11-21T05:15:20;97974.97;;;8.27
81399;BMP280;70853;50.074;10.224;2023-11-21T05:17:47;97971.56;;;8.19
81399;BMP280;70853;50.074;10.224;2023-11-21T05:20:15;97973.34;;;8.24
81399;BMP280;70853;50.074;10.224;2023-11-21T05:22:49;97976.38;;;8.28
81399;BMP280;70853;50.074;10.224;2023-11-21T05:25:16;97976.59;;;8.30
81399;BMP280;70853;50.074;10.224;2023-11-21T05:27:47;97981.91;;;8.30
81399;BMP280;70853;50.074;10.224;2023-11-21T05:30:13;97992.97;;;8.42
81399;BMP280;70853;50.074;10.224;2023-11-21T05:32:40;97984.22;;;8.33
81399;BMP280;70853;50.074;10.224;2023-11-21T05:35:07;97994.72;;;8.39
81399;BMP280;70853;50.074;10.224;2023-11-21T05:37:38;97989.72;;;8.35
81399;BMP280;70853;50.074;10.224;2023-11-21T05:40:06;97983.50;;;8.33
81399;BMP280;70853;50.074;10.224;2023-11-21T05:42:33;97998.22;;;8.34
81399;BMP280;70853;50.074;10.224;2023-11-21T05:44:59;98000.81;;;8.26
81399;BMP280;70853;50.074;10.224;2023-11-21T05:47:39;97988.31;;;8.14
81399;BMP280;70853;50.074;10.224;2023-11-21T05:50:10;97995.50;;;8.26
81399;BMP280;70853;50.074;10.224;2023-11-21T05:52:41;98001.00;;;8.28
81399;BMP280;70853;50.074;10.224;2023-11-21T05:55:08;98006.63;;;8.04
81399;BMP280;70853;50.074;10.224;2023-11-21T05:57:38;98001.63;;;8.01
81399;BMP280;70853;50.074;10.224;2023-11-21T06:00:05;98008.47;;;8.09
81399;BMP280;70853;50.074;10.224;2023-11-21T06:02:46;98004.91;;;8.07
81399;BMP280;70853;50.074;10.224;2023-11-21T06:05:12;98009.06;;;8.15
81399;BMP280;70853;50.074;10.224;2023-11-21T06:07:38;98016.88;;;8.21
81399;BMP280;70853;50.074;10.224;2023-11-21T06:10:08;98014.22;;;8.21
81399;BMP280;70853;50.074;10.224;2023-11-21T06:12:35;98022.06;;;8.26
81399;BMP280;70853;50.074;10.224;2023-11-21T06:15:04;98025.91;;;8.18
81399;BMP280;70853;50.074;10.224;2023-11-21T06:17:31;98034.84;;;8.07
81399;BMP280;70853;50.074;10.224;2023-11-21T06:19:56;98040.88;;;8.08
81399;BMP280;70853;50.074;10.224;2023-11-21T06:22:22;98037.41;;;8.20
81399;BMP280;70853;50.074;10.224;2023-11-21T06:24:48;98037.25;;;8.18
81399;BMP280;70853;50.074;10.224;2023-11-21T06:27:13;98042.81;;;8.28
81399;BMP280;70853;50.074;10.224;2023-11-21T06:29:39;98044.16;;;8.21
81399;BMP280;70853;50.074;10.224;2023-11-21T06:32:08;98045.94;;;8.19
81399;BMP280;70853;50.074;10.224;2023-11-21T06:34:34;98036.53;;;8.18
81399;BMP280;70853;50.074;10.224;2023-11-21T06:37:00;98046.19;;;8.28
81399;BMP280;70853;50.074;10.224;2023-11-21T06:39:25;98047.53;;;8.22
81399;BMP280;70853;50.074;10.224;2023-11-21T06:41:51;98054.44;;;8.17
81399;BMP280;70853;50.074;10.224;2023-11-21T06:44:17;98057.09;;;8.17
81399;BMP280;70853;50.074;10.224;2023-11-21T06:46:43;98062.38;;;8.17
81399;BMP280;70853;50.074;10.224;2023-11-21T06:49:08;98060.44;;;8.18
81399;BMP280;70853;50.074;10.224;2023-11-21T06:51:34;98054.34;;;8.10
81399;BMP280;70853;50.074;10.224;2023-11-21T06:54:00;98064.34;;;8.17
81399;BMP280;70853;50.074;10.224;2023-11-21T06:56:25;98073.91;;;8.20
81399;BMP280;70853;50.074;10.224;2023-11-21T06:58:51;98077.81;;;8.19
81399;BMP280;70853;50.074;10.224;2023-11-21T07:01:19;98079.91;;;8.20
81399;BMP280;70853;50.074;10.224;2023-11-21T07:03:45;98092.34;;;8.18
81399;BMP280;70853;50.074;10.224;2023-11-21T07:06:11;98087.72;;;8.18
81399;BMP280;70853;50.074;10.224;2023-11-21T07:08:37;98092.84;;;8.16
81399;BMP280;70853;50.074;10.224;2023-11-21T07:11:05;98099.59;;;8.17
81399;BMP280;70853;50.074;10.224;2023-11-21T07:13:31;98096.41;;;8.19
81399;BMP280;70853;50.074;10.224;2023-11-21T07:16:00;98094.13;;;8.23
81399;BMP280;70853;50.074;10.224;2023-11-21T07:18:26;98092.88;;;8.24
81399;BMP280;70853;50.074;10.224;2023-11-21T07:20:52;98102.50;;;8.27
81399;BMP280;70853;50.074;10.224;2023-11-21T07:23:17;98107.09;;;8.26
81399;BMP280;70853;50.074;10.224;2023-11-21T07:25:43;98108.72;;;8.29
81399;BMP280;70853;50.074;10.224;2023-11-21T07:28:09;98102.38;;;8.32
81399;BMP280;70853;50.074;10.224;2023-11-21T07:30:35;98109.75;;;8.26
81399;BMP280;70853;50.074;10.224;2023-11-21T07:33:01;98111.78;;;8.33
81399;BMP280;70853;50.074;10.224;2023-11-21T07:35:26;98110.56;;;8.21
81399;BMP280;70853;50.074;10.224;2023-11-21T07:37:52;98116.66;;;8.09
81399;BMP280;70853;50.074;10.224;2023-11-21T07:40:17;98115.03;;;8.06
81399;BMP280;70853;50.074;10.224;2023-11-21T07:42:43;98131.06;;;8.00
81399;BMP280;70853;50.074;10.224;2023-11-21T07:45:10;98126.59;;;7.95
81399;BMP280;70853;50.074;10.224;2023-11-21T07:47:36;98131.69;;;7.93
81399;BMP280;70853;50.074;10.224;2023-11-21T07:50:05;98141.19;;;8.02
81399;BMP280;70853;50.074;10.224;2023-11-21T07:52:30;98134.84;;;8.05
81399;BMP280;70853;50.074;10.224;2023-11-21T07:54:56;98140.97;;;7.99
81399;BMP280;70853;50.074;10.224;2023-11-21T07:57:21;98145.56;;;8.12
81399;BMP280;70853;50.074;10.224;2023-11-21T07:59:47;98148.94;;;8.13
81399;BMP280;70853;50.074;10.224;2023-11-21T08:02:12;98154.25;;;8.13
81399;BMP280;70853;50.074;10.224;2023-11-21T08:04:38;98150.38;;;8.14
81399;BMP280;70853;50.074;10.224;2023-11-21T08:07:03;98156.88;;;8.26
81399;BMP280;70853;50.074;10.224;2023-11-21T08:09:29;98150.97;;;8.20
81399;BMP280;70853;50.074;10.224;2023-11-21T08:11:55;98161.75;;;8.22
81399;BMP280;70853;50.074;10.224;2023-11-21T08:14:22;98164.63;;;8.24
81399;BMP280;70853;50.074;10.224;2023-11-21T08:16:50;98171.88;;;8.36
81399;BMP280;70853;50.074;10.224;2023-11-21T08:19:16;98168.50;;;8.36
81399;BMP280;70853;50.074;10.224;2023-11-21T08:21:44;98172.00;;;8.31
81399;BMP280;70853;50.074;10.224;2023-11-21T08:24:11;98169.22;;;8.36
81399;BMP280;70853;50.074;10.224;2023-11-21T08:26:37;98170.91;;;8.47
81399;BMP280;70853;50.074;10.224;2023-11-21T08:29:03;98161.75;;;8.35
81399;BMP280;70853;50.074;10.224;2023-11-21T08:31:29;98170.78;;;8.53
81399;BMP280;70853;50.074;10.224;2023-11-21T08:33:55;98173.44;;;8.53
81399;BMP280;70853;50.074;10.224;2023-11-21T08:36:22;98176.81;;;8.53
81399;BMP280;70853;50.074;10.224;2023-11-21T08:38:50;98183.84;;;8.64
81399;BMP280;70853;50.074;10.224;2023-11-21T08:41:18;98181.25;;;8.71
81399;BMP280;70853;50.074;10.224;2023-11-21T08:43:49;98182.31;;;8.68
81399;BMP280;70853;50.074;10.224;2023-11-21T08:46:15;98179.38;;;8.80
81399;BMP280;70853;50.074;10.224;2023-11-21T08:48:43;98180.53;;;8.92
81399;BMP280;70853;50.074;10.224;2023-11-21T08:51:10;98173.72;;;8.83
81399;BMP280;70853;50.074;10.224;2023-11-21T08:53:39;98178.16;;;9.01
81399;BMP280;70853;50.074;10.224;2023-11-21T08:56:05;98184.97;;;9.10
81399;BMP280;70853;50.074;10.224;2023-11-21T08:58:31;98179.00;;;9.17
81399;BMP280;70853;50.074;10.224;2023-11-21T09:00:58;98180.03;;;9.14
81399;BMP280;70853;50.074;10.224;2023-11-21T09:03:23;98177.75;;;9.18
81399;BMP280;70853;50.074;10.224;2023-11-21T09:05:49;98176.44;;;9.11
81399;BMP280;70853;50.074;10.224;2023-11-21T09:08:14;98190.13;;;9.36
81399;BMP280;70853;50.074;10.224;2023-11-21T09:10:40;98189.00;;;9.32
81399;BMP280;70853;50.074;10.224;2023-11-21T09:13:08;98183.56;;;9.37
81399;BMP280;70853;50.074;10.224;2023-11-21T09:15:34;98189.91;;;9.55
81399;BMP280;70853;50.074;10.224;2023-11-21T09:18:00;98200.00;;;9.56
81399;BMP280;70853;50.074;10.224;2023-11-21T09:20:27;98200.94;;;9.38
81399;BMP280;70853;50.074;10.224;2023-11-21T09:22:55;98202.72;;;9.36
81399;BMP280;70853;50.074;10.224;2023-11-21T09:25:21;98208.63;;;9.42
81399;BMP280;70853;50.074;10.224;2023-11-21T09:27:47;98197.72;;;9.32
81399;BMP280;70853;50.074;10.224;2023-11-21T09:30:13;98210.69;;;9.28
81399;BMP280;70853;50.074;10.224;2023-11-21T09:32:40;98215.19;;;9.20
81399;BMP280;70853;50.074;10.224;2023-11-21T09:35:06;98221.47;;;9.30
81399;BMP280;70853;50.074;10.224;2023-11-21T09:37:33;98217.69;;;9.18
81399;BMP280;70853;50.074;10.224;2023-11-21T09:39:59;98206.84;;;9.16
81399;BMP280;70853;50.074;10.224;2023-11-21T09:42:38;98220.50;;;9.41
81399;BMP280;70853;50.074;10.224;2023-11-21T09:47:53;98234.03;;;9.22
81399;BMP280;70853;50.074;10.224;2023-11-21T09:50:21;98238.97;;;9.18
81399;BMP280;70853;50.074;10.224;2023-11-21T09:53:21;98238.56;;;9.14
81399;BMP280;70853;50.074;10.224;2023-11-21T09:55:53;98240.56;;;9.42
81399;BMP280;70853;50.074;10.224;2023-11-21T09:58:20;98227.00;;;9.32
81399;BMP280;70853;50.074;10.224;2023-11-21T10:00:48;98242.84;;;9.17
81399;BMP280;70853;50.074;10.224;2023-11-21T10:03:15;98229.41;;;9.23
81399;BMP280;70853;50.074;10.224;2023-11-21T10:05:44;98240.78;;;9.23
81399;BMP280;70853;50.074;10.224;2023-11-21T10:08:15;98239.66;;;9.39
81399;BMP280;70853;50.074;10.224;2023-11-21T10:10:45;98244.66;;;9.43
81399;BMP280;70853;50.074;10.224;2023-11-21T10:13:13;98235.16;;;9.27
81399;BMP280;70853;50.074;10.224;2023-11-21T10:15:41;98241.19;;;9.27
81399;BMP280;70853;50.074;10.224;2023-11-21T10:18:09;98240.09;;;9.30
81399;BMP280;70853;50.074;10.224;2023-11-21T10:20:36;98250.00;;;9.22
81399;BMP280;70853;50.074;10.224;2023-11-21T10:23:03;98245.06;;;9.26
81399;BMP280;70853;50.074;10.224;2023-11-21T10:25:30;98249.47;;;9.24
81399;BMP280;70853;50.074;10.224;2023-11-21T10:28:01;98239.16;;;9.20
81399;BMP280;70853;50.074;10.224;2023-11-21T10:30:35;98239.16;;;9.20
81399;BMP280;70853;50.074;10.224;2023-11-21T10:33:04;98246.94;;;9.18
81399;BMP280;70853;50.074;10.224;2023-11-21T10:35:47;98245.19;;;9.21
81399;BMP280;70853;50.074;10.224;2023-11-21T10:38:19;98242.97;;;9.32
81399;BMP280;70853;50.074;10.224;2023-11-21T10:40:48;98237.91;;;9.42
81399;BMP280;70853;50.074;10.224;2023-11-21T10:43:15;98244.22;;;9.60
81399;BMP280;70853;50.074;10.224;2023-11-21T10:45:43;98240.81;;;9.80
81399;BMP280;70853;50.074;10.224;2023-11-21T10:48:12;98242.09;;;9.86
81399;BMP280;70853;50.074;10.224;2023-11-21T10:50:40;98242.31;;;9.68
81399;BMP280;70853;50.074;10.224;2023-11-21T10:53:06;98244.22;;;9.88
81399;BMP280;70853;50.074;10.224;2023-11-21T10:55:35;98253.03;;;10.04
81399;BMP280;70853;50.074;10.224;2023-11-21T10:58:04;98255.38;;;10.15
81399;BMP280;70853;50.074;10.224;2023-11-21T11:00:34;98255.06;;;10.26
81399;BMP280;70853;50.074;10.224;2023-11-21T11:03:00;98251.66;;;10.18
81399;BMP280;70853;50.074;10.224;2023-11-21T11:05:27;98254.13;;;10.08
81399;BMP280;70853;50.074;10.224;2023-11-21T11:08:02;98254.84;;;10.16
81399;BMP280;70853;50.074;10.224;2023-11-21T11:10:29;98253.03;;;10.11
81399;BMP280;70853;50.074;10.224;2023-11-21T11:12:56;98247.69;;;10.04
81399;BMP280;70853;50.074;10.224;2023-11-21T11:15:23;98248.09;;;10.08
81399;BMP280;70853;50.074;10.224;2023-11-21T11:17:49;98253.47;;;10.23
81399;BMP280;70853;50.074;10.224;2023-11-21T11:20:16;98249.59;;;10.31
81399;BMP280;70853;50.074;10.224;2023-11-21T11:22:57;98256.72;;;10.37
81399;BMP280;70853;50.074;10.224;2023-11-21T11:25:38;98253.94;;;10.14
81399;BMP280;70853;50.074;10.224;2023-11-21T11:28:08;98258.34;;;10.04
81399;BMP280;70853;50.074;10.224;2023-11-21T11:31:03;98255.13;;;9.98
81399;BMP280;70853;50.074;10.224;2023-11-21T11:33:41;98254.41;;;9.97
81399;BMP280;70853;50.074;10.224;2023-11-21T11:36:29;98256.22;;;10.02
81399;BMP280;70853;50.074;10.224;2023-11-21T11:38:55;98257.53;;;10.16
81399;BMP280;70853;50.074;10.224;2023-11-21T11:41:25;98263.66;;;10.40
81399;BMP280;70853;50.074;10.224;2023-11-21T11:43:53;98261.03;;;10.55
81399;BMP280;70853;50.074;10.224;2023-11-21T11:46:18;98267.63;;;10.54
81399;BMP280;70853;50.074;10.224;2023-11-21T11:48:48;98274.41;;;10.70
81399;BMP280;70853;50.074;10.224;2023-11-21T11:51:27;98269.84;;;11.01
81399;BMP280;70853;50.074;10.224;2023-11-21T11:53:53;98275.53;;;10.82
81399;BMP280;70853;50.074;10.224;2023-11-21T11:56:22;98273.59;;;10.98
81399;BMP280;70853;50.074;10.224;2023-11-21T11:58:50;98270.91;;;10.83
81399;BMP280;70853;50.074;10.224;2023-11-21T12:01:19;98272.16;;;11.04
81399;BMP280;70853;50.074;10.224;2023-11-21T12:06:43;98278.53;;;10.94
81399;BMP280;70853;50.074;10.224;2023-11-21T12:09:18;98283.19;;;11.01
81399;BMP280;70853;50.074;10.224;2023-11-21T12:11:44;98283.03;;;11.22
81399;BMP280;70853;50.074;10.224;2023-11-21T12:14:10;98272.53;;;11.46
81399;BMP280;70853;50.074;10.224;2023-11-21T12:16:35;98287.84;;;11.38
81399;BMP280;70853;50.074;10.224;2023-11-21T12:19:01;98279.09;;;11.23
81399;BMP280;70853;50.074;10.224;2023-11-21T12:21:28;98290.50;;;11.38
81399;BMP280;70853;50.074;10.224;2023-11-21T12:23:54;98284.09;;;11.49
81399;BMP280;70853;50.074;10.224;2023-11-21T12:26:23;98281.06;;;11.07
81399;BMP280;70853;50.074;10.224;2023-11-21T12:28:55;98278.19;;;10.82
81399;BMP280;70853;50.074;10.224;2023-11-21T12:31:23;98285.16;;;11.08
81399;BMP280;70853;50.074;10.224;2023-11-21T12:33:50;98293.38;;;11.18
81399;BMP280;70853;50.074;10.224;2023-11-21T12:36:17;98295.69;;;11.29
81399;BMP280;70853;50.074;10.224;2023-11-21T12:38:43;98292.66;;;11.40
81399;BMP280;70853;50.074;10.224;2023-11-21T12:41:11;98301.91;;;11.39
81399;BMP280;70853;50.074;10.224;2023-11-21T12:43:37;98292.09;;;11.11
81399;BMP280;70853;50.074;10.224;2023-11-21T12:46:08;98295.50;;;11.27
81399;BMP280;70853;50.074;10.224;2023-11-21T12:48:41;98295.13;;;11.38
81399;BMP280;70853;50.074;10.224;2023-11-21T12:51:12;98303.50;;;11.11
81399;BMP280;70853;50.074;10.224;2023-11-21T12:53:40;98309.88;;;11.08
81399;BMP280;70853;50.074;10.224;2023-11-21T12:56:12;98309.19;;;11.08
81399;BMP280;70853;50.074;10.224;2023-11-21T12:58:39;98307.91;;;10.94
81399;BMP280;70853;50.074;10.224;2023-11-21T13:01:08;98302.25;;;11.12
81399;BMP280;70853;50.074;10.224;2023-11-21T13:03:37;98301.72;;;11.06
81399;BMP280;70853;50.074;10.224;2023-11-21T13:06:04;98298.34;;;11.29
81399;BMP280;70853;50.074;10.224;2023-11-21T13:08:30;98312.72;;;11.03
81399;BMP280;70853;50.074;10.224;2023-11-21T13:10:58;98313.22;;;10.79
81399;BMP280;70853;50.074;10.224;2023-11-21T13:13:28;98309.16;;;11.00
81399;BMP280;70853;50.074;10.224;2023-11-21T13:15:55;98311.31;;;11.02
81399;BMP280;70853;50.074;10.224;2023-11-21T13:18:24;98308.66;;;11.25
81399;BMP280;70853;50.074;10.224;2023-11-21T13:20:53;98309.28;;;10.72
81399;BMP280;70853;50.074;10.224;2023-11-21T13:23:20;98303.94;;;10.72
81399;BMP280;70853;50.074;10.224;2023-11-21T13:25:46;98281.63;;;10.47
81399;BMP280;70853;50.074;10.224;2023-11-21T13:28:13;98314.97;;;10.76
81399;BMP280;70853;50.074;10.224;2023-11-21T13:30:41;98323.84;;;10.71
81399;BMP280;70853;50.074;10.224;2023-11-21T13:33:08;98314.09;;;10.73
81399;BMP280;70853;50.074;10.224;2023-11-21T13:35:36;98328.53;;;10.86
81399;BMP280;70853;50.074;10.224;2023-11-21T13:38:12;98322.38;;;10.55
81399;BMP280;70853;50.074;10.224;2023-11-21T13:40:39;98326.13;;;10.59
81399;BMP280;70853;50.074;10.224;2023-11-21T13:43:14;98328.97;;;10.54
81399;BMP280;70853;50.074;10.224;2023-11-21T13:45:41;98336.38;;;10.40
81399;BMP280;70853;50.074;10.224;2023-11-21T13:48:08;98338.75;;;10.59
81399;BMP280;70853;50.074;10.224;2023-11-21T13:50:42;98323.44;;;10.52
81399;BMP280;70853;50.074;10.224;2023-11-21T13:53:21;98337.78;;;10.33
81399;BMP280;70853;50.074;10.224;2023-11-21T13:55:50;98340.75;;;10.30
81399;BMP280;70853;50.074;10.224;2023-11-21T13:58:17;98350.22;;;10.39
81399;BMP280;70853;50.074;10.224;2023-11-21T14:00:50;98345.91;;;10.28
81399;BMP280;70853;50.074;10.224;2023-11-21T14:03:23;98345.25;;;10.43
81399;BMP280;70853;50.074;10.224;2023-11-21T14:06:03;98349.47;;;10.30
81399;BMP280;70853;50.074;10.224;2023-11-21T14:08:34;98352.00;;;10.44
81399;BMP280;70853;50.074;10.224;2023-11-21T14:10:59;98360.09;;;10.23
81399;BMP280;70853;50.074;10.224;2023-11-21T14:13:26;98348.53;;;10.20
81399;BMP280;70853;50.074;10.224;2023-11-21T14:15:52;98349.75;;;10.19